sensor_id;sensor_type;location;lat;lon;timestamp;P1;durP1;ratioP1;P2;durP2;ratioP2
58972;SDS011;44750;52.040;7.472;2022-07-30T00:03:14;10.10;;;5.00;;
58972;SDS011;44750;52.040;7.472;2022-07-30T00:08:14;11.88;;;6.40;;
58972;SDS011;44750;52.040;7.472;2022-07-30T00:13:14;13.80;;;4.95;;
58972;SDS011;44750;52.040;7.472;2022-07-30T00:18:15;7.65;;;4.85;;
58972;SDS011;44750;52.040;7.472;2022-07-30T00:23:15;8.68;;;5.10;;
58972;SDS011;44750;52.040;7.472;2022-07-30T00:28:15;10.88;;;5.43;;
58972;SDS011;44750;52.040;7.472;2022-07-30T00:33:15;13.88;;;5.70;;
58972;SDS011;44750;52.040;7.472;2022-07-30T00:38:16;15.90;;;7.63;;
58972;SDS011;44750;52.040;7.472;2022-07-30T00:43:16;9.85;;;5.78;;
58972;SDS011;44750;52.040;7.472;2022-07-30T00:48:17;8.98;;;5.55;;
58972;SDS011;44750;52.040;7.472;2022-07-30T00:53:17;15.30;;;7.05;;
58972;SDS011;44750;52.040;7.472;2022-07-30T00:58:19;9.95;;;6.00;;
58972;SDS011;44750;52.040;7.472;2022-07-30T01:03:19;7.40;;;5.70;;
58972;SDS011;44750;52.040;7.472;2022-07-30T01:08:19;13.73;;;6.47;;
58972;SDS011;44750;52.040;7.472;2022-07-30T01:13:20;10.95;;;6.43;;
58972;SDS011;44750;52.040;7.472;2022-07-30T01:18:20;9.80;;;6.60;;
58972;SDS011;44750;52.040;7.472;2022-07-30T01:23:26;10.18;;;5.95;;
58972;SDS011;44750;52.040;7.472;2022-07-30T01:28:35;15.57;;;6.07;;
58972;SDS011;44750;52.040;7.472;2022-07-30T01:33:39;13.03;;;7.90;;
58972;SDS011;44750;52.040;7.472;2022-07-30T01:38:44;16.42;;;9.07;;
58972;SDS011;44750;52.040;7.472;2022-07-30T01:43:45;21.10;;;7.18;;
58972;SDS011;44750;52.040;7.472;2022-07-30T01:48:46;12.85;;;7.40;;
58972;SDS011;44750;52.040;7.472;2022-07-30T01:53:48;14.80;;;7.05;;
58972;SDS011;44750;52.040;7.472;2022-07-30T01:58:53;23.58;;;11.05;;
58972;SDS011;44750;52.040;7.472;2022-07-30T02:03:56;15.48;;;8.70;;
58972;SDS011;44750;52.040;7.472;2022-07-30T02:09:00;13.17;;;7.10;;
58972;SDS011;44750;52.040;7.472;2022-07-30T02:14:06;14.40;;;8.20;;
58972;SDS011;44750;52.040;7.472;2022-07-30T02:19:13;10.13;;;7.65;;
58972;SDS011;44750;52.040;7.472;2022-07-30T02:24:16;13.82;;;8.15;;
58972;SDS011;44750;52.040;7.472;2022-07-30T02:29:21;13.13;;;8.15;;
58972;SDS011;44750;52.040;7.472;2022-07-30T02:34:22;14.93;;;9.63;;
58972;SDS011;44750;52.040;7.472;2022-07-30T02:39:23;15.35;;;9.73;;
58972;SDS011;44750;52.040;7.472;2022-07-30T02:44:25;13.32;;;9.30;;
58972;SDS011;44750;52.040;7.472;2022-07-30T02:49:29;11.68;;;9.40;;
58972;SDS011;44750;52.040;7.472;2022-07-30T02:54:32;15.80;;;9.90;;
58972;SDS011;44750;52.040;7.472;2022-07-30T02:59:37;19.77;;;9.60;;
58972;SDS011;44750;52.040;7.472;2022-07-30T03:04:39;17.60;;;9.35;;
58972;SDS011;44750;52.040;7.472;2022-07-30T03:09:41;14.32;;;9.48;;
58972;SDS011;44750;52.040;7.472;2022-07-30T03:14:43;13.73;;;9.82;;
58972;SDS011;44750;52.040;7.472;2022-07-30T03:19:44;31.48;;;10.52;;
58972;SDS011;44750;52.040;7.472;2022-07-30T03:24:47;13.13;;;9.43;;
58972;SDS011;44750;52.040;7.472;2022-07-30T03:29:49;15.52;;;10.15;;
58972;SDS011;44750;52.040;7.472;2022-07-30T03:34:52;19.13;;;9.88;;
58972;SDS011;44750;52.040;7.472;2022-07-30T03:39:52;12.95;;;10.18;;
58972;SDS011;44750;52.040;7.472;2022-07-30T03:44:54;15.73;;;10.68;;
58972;SDS011;44750;52.040;7.472;2022-07-30T03:49:55;16.38;;;10.85;;
58972;SDS011;44750;52.040;7.472;2022-07-30T03:54:55;14.82;;;10.95;;
58972;SDS011;44750;52.040;7.472;2022-07-30T03:59:56;18.23;;;11.25;;
58972;SDS011;44750;52.040;7.472;2022-07-30T04:04:56;18.60;;;11.38;;
58972;SDS011;44750;52.040;7.472;2022-07-30T04:09:56;14.65;;;11.70;;
58972;SDS011;44750;52.040;7.472;2022-07-30T04:14:56;18.38;;;11.68;;
58972;SDS011;44750;52.040;7.472;2022-07-30T04:25:18;15.35;;;10.80;;
58972;SDS011;44750;52.040;7.472;2022-07-30T04:30:19;15.80;;;11.60;;
58972;SDS011;44750;52.040;7.472;2022-07-30T04:35:28;17.47;;;11.17;;
58972;SDS011;44750;52.040;7.472;2022-07-30T04:40:31;18.65;;;11.68;;
58972;SDS011;44750;52.040;7.472;2022-07-30T04:45:31;19.93;;;11.60;;
58972;SDS011;44750;52.040;7.472;2022-07-30T04:50:31;15.02;;;10.90;;
58972;SDS011;44750;52.040;7.472;2022-07-30T04:55:35;16.58;;;11.35;;
58972;SDS011;44750;52.040;7.472;2022-07-30T05:00:39;15.20;;;11.25;;
58972;SDS011;44750;52.040;7.472;2022-07-30T05:05:40;14.20;;;11.02;;
58972;SDS011;44750;52.040;7.472;2022-07-30T05:10:42;20.80;;;12.85;;
58972;SDS011;44750;52.040;7.472;2022-07-30T05:15:43;19.75;;;11.38;;
58972;SDS011;44750;52.040;7.472;2022-07-30T05:20:43;19.88;;;11.45;;
58972;SDS011;44750;52.040;7.472;2022-07-30T05:25:43;14.82;;;11.90;;
58972;SDS011;44750;52.040;7.472;2022-07-30T05:30:43;17.58;;;11.88;;
58972;SDS011;44750;52.040;7.472;2022-07-30T05:35:44;16.58;;;11.77;;
58972;SDS011;44750;52.040;7.472;2022-07-30T05:40:44;19.75;;;12.32;;
58972;SDS011;44750;52.040;7.472;2022-07-30T05:45:44;15.20;;;11.60;;
58972;SDS011;44750;52.040;7.472;2022-07-30T05:50:44;16.70;;;12.10;;
58972;SDS011;44750;52.040;7.472;2022-07-30T05:55:44;17.60;;;12.15;;
58972;SDS011;44750;52.040;7.472;2022-07-30T06:00:45;15.50;;;12.07;;
58972;SDS011;44750;52.040;7.472;2022-07-30T06:05:45;17.70;;;12.80;;
58972;SDS011;44750;52.040;7.472;2022-07-30T06:10:45;20.35;;;12.98;;
58972;SDS011;44750;52.040;7.472;2022-07-30T06:15:46;17.13;;;12.27;;
58972;SDS011;44750;52.040;7.472;2022-07-30T06:20:46;17.70;;;12.63;;
58972;SDS011;44750;52.040;7.472;2022-07-30T06:25:46;17.45;;;12.07;;
58972;SDS011;44750;52.040;7.472;2022-07-30T06:30:47;19.55;;;12.57;;
58972;SDS011;44750;52.040;7.472;2022-07-30T06:35:47;25.77;;;12.88;;
58972;SDS011;44750;52.040;7.472;2022-07-30T06:40:47;19.33;;;13.15;;
58972;SDS011;44750;52.040;7.472;2022-07-30T06:45:47;16.98;;;13.35;;
58972;SDS011;44750;52.040;7.472;2022-07-30T06:50:48;19.35;;;13.05;;
58972;SDS011;44750;52.040;7.472;2022-07-30T06:55:48;18.80;;;13.37;;
58972;SDS011;44750;52.040;7.472;2022-07-30T07:00:48;16.98;;;12.55;;
58972;SDS011;44750;52.040;7.472;2022-07-30T07:05:48;20.07;;;13.33;;
58972;SDS011;44750;52.040;7.472;2022-07-30T07:10:49;16.70;;;12.93;;
58972;SDS011;44750;52.040;7.472;2022-07-30T07:15:49;17.33;;;12.70;;
58972;SDS011;44750;52.040;7.472;2022-07-30T07:20:49;21.70;;;12.40;;
58972;SDS011;44750;52.040;7.472;2022-07-30T07:25:49;15.32;;;12.15;;
58972;SDS011;44750;52.040;7.472;2022-07-30T07:30:50;17.20;;;11.87;;
58972;SDS011;44750;52.040;7.472;2022-07-30T07:35:50;15.48;;;11.85;;
58972;SDS011;44750;52.040;7.472;2022-07-30T07:40:50;14.23;;;10.63;;
58972;SDS011;44750;52.040;7.472;2022-07-30T07:45:50;14.05;;;10.07;;
58972;SDS011;44750;52.040;7.472;2022-07-30T07:50:51;14.30;;;10.48;;
58972;SDS011;44750;52.040;7.472;2022-07-30T07:55:51;13.40;;;9.68;;
58972;SDS011;44750;52.040;7.472;2022-07-30T08:00:51;13.38;;;10.35;;
58972;SDS011;44750;52.040;7.472;2022-07-30T08:05:51;13.65;;;9.88;;
58972;SDS011;44750;52.040;7.472;2022-07-30T08:10:52;16.08;;;10.00;;
58972;SDS011;44750;52.040;7.472;2022-07-30T08:15:52;11.10;;;8.88;;
58972;SDS011;44750;52.040;7.472;2022-07-30T08:20:52;10.93;;;8.50;;
58972;SDS011;44750;52.040;7.472;2022-07-30T08:25:52;12.15;;;9.73;;
58972;SDS011;44750;52.040;7.472;2022-07-30T08:30:53;14.73;;;9.38;;
58972;SDS011;44750;52.040;7.472;2022-07-30T08:35:53;12.95;;;9.60;;
58972;SDS011;44750;52.040;7.472;2022-07-30T08:40:53;13.82;;;10.15;;
58972;SDS011;44750;52.040;7.472;2022-07-30T08:45:55;12.93;;;9.00;;
58972;SDS011;44750;52.040;7.472;2022-07-30T08:50:55;13.25;;;9.35;;
58972;SDS011;44750;52.040;7.472;2022-07-30T08:55:57;11.52;;;8.68;;
58972;SDS011;44750;52.040;7.472;2022-07-30T09:00:57;13.63;;;8.98;;
58972;SDS011;44750;52.040;7.472;2022-07-30T09:05:58;12.13;;;9.00;;
58972;SDS011;44750;52.040;7.472;2022-07-30T09:10:59;12.30;;;8.52;;
58972;SDS011;44750;52.040;7.472;2022-07-30T09:16:00;15.23;;;8.50;;
58972;SDS011;44750;52.040;7.472;2022-07-30T09:26:21;13.60;;;9.10;;
58972;SDS011;44750;52.040;7.472;2022-07-30T09:31:21;13.80;;;8.77;;
58972;SDS011;44750;52.040;7.472;2022-07-30T09:36:21;11.82;;;7.20;;
58972;SDS011;44750;52.040;7.472;2022-07-30T09:41:31;15.47;;;7.90;;
58972;SDS011;44750;52.040;7.472;2022-07-30T09:46:45;11.13;;;7.03;;
58972;SDS011;44750;52.040;7.472;2022-07-30T09:51:47;10.20;;;6.43;;
58972;SDS011;44750;52.040;7.472;2022-07-30T09:56:56;10.63;;;5.95;;
58972;SDS011;44750;52.040;7.472;2022-07-30T10:02:03;8.65;;;5.78;;
58972;SDS011;44750;52.040;7.472;2022-07-30T10:07:03;17.17;;;7.88;;
58972;SDS011;44750;52.040;7.472;2022-07-30T10:12:04;12.27;;;6.57;;
58972;SDS011;44750;52.040;7.472;2022-07-30T10:17:05;9.90;;;5.63;;
58972;SDS011;44750;52.040;7.472;2022-07-30T10:22:05;10.98;;;5.93;;
58972;SDS011;44750;52.040;7.472;2022-07-30T10:27:07;8.20;;;6.13;;
58972;SDS011;44750;52.040;7.472;2022-07-30T10:32:08;9.10;;;5.73;;
58972;SDS011;44750;52.040;7.472;2022-07-30T10:37:09;10.65;;;4.53;;
58972;SDS011;44750;52.040;7.472;2022-07-30T10:47:24;8.93;;;4.75;;
58972;SDS011;44750;52.040;7.472;2022-07-30T11:03:11;7.93;;;3.60;;
58972;SDS011;44750;52.040;7.472;2022-07-30T11:08:27;10.55;;;4.13;;
58972;SDS011;44750;52.040;7.472;2022-07-30T11:19:02;14.20;;;3.85;;
58972;SDS011;44750;52.040;7.472;2022-07-30T11:24:05;6.85;;;3.63;;
58972;SDS011;44750;52.040;7.472;2022-07-30T11:29:05;8.80;;;4.27;;
58972;SDS011;44750;52.040;7.472;2022-07-30T11:34:23;8.63;;;4.50;;
58972;SDS011;44750;52.040;7.472;2022-07-30T11:39:38;9.70;;;4.15;;
58972;SDS011;44750;52.040;7.472;2022-07-30T11:45:17;8.55;;;4.00;;
58972;SDS011;44750;52.040;7.472;2022-07-30T11:50:19;7.82;;;3.72;;
58972;SDS011;44750;52.040;7.472;2022-07-30T11:55:34;6.72;;;3.70;;
58972;SDS011;44750;52.040;7.472;2022-07-30T12:00:37;8.45;;;3.17;;
58972;SDS011;44750;52.040;7.472;2022-07-30T12:05:38;9.13;;;3.40;;
58972;SDS011;44750;52.040;7.472;2022-07-30T12:10:38;8.68;;;3.10;;
58972;SDS011;44750;52.040;7.472;2022-07-30T12:15:40;5.13;;;2.70;;
58972;SDS011;44750;52.040;7.472;2022-07-30T12:20:42;13.50;;;2.95;;
58972;SDS011;44750;52.040;7.472;2022-07-30T12:25:42;4.78;;;2.22;;
58972;SDS011;44750;52.040;7.472;2022-07-30T12:30:42;3.67;;;2.33;;
58972;SDS011;44750;52.040;7.472;2022-07-30T12:35:47;2.90;;;2.37;;
58972;SDS011;44750;52.040;7.472;2022-07-30T12:40:52;4.85;;;2.20;;
58972;SDS011;44750;52.040;7.472;2022-07-30T12:45:58;4.72;;;1.95;;
58972;SDS011;44750;52.040;7.472;2022-07-30T12:51:05;10.55;;;2.20;;
58972;SDS011;44750;52.040;7.472;2022-07-30T12:56:16;9.07;;;2.08;;
58972;SDS011;44750;52.040;7.472;2022-07-30T13:01:18;4.93;;;2.00;;
58972;SDS011;44750;52.040;7.472;2022-07-30T13:06:20;3.95;;;1.77;;
58972;SDS011;44750;52.040;7.472;2022-07-30T13:11:22;2.97;;;1.80;;
58972;SDS011;44750;52.040;7.472;2022-07-30T13:16:24;3.45;;;1.50;;
58972;SDS011;44750;52.040;7.472;2022-07-30T13:21:24;4.03;;;1.60;;
58972;SDS011;44750;52.040;7.472;2022-07-30T13:26:24;5.57;;;1.70;;
58972;SDS011;44750;52.040;7.472;2022-07-30T13:31:25;3.10;;;1.50;;
58972;SDS011;44750;52.040;7.472;2022-07-30T13:36:25;3.43;;;1.40;;
58972;SDS011;44750;52.040;7.472;2022-07-30T13:41:25;3.90;;;1.30;;
58972;SDS011;44750;52.040;7.472;2022-07-30T13:46:26;2.80;;;1.50;;
58972;SDS011;44750;52.040;7.472;2022-07-30T13:56:29;4.55;;;1.52;;
58972;SDS011;44750;52.040;7.472;2022-07-30T14:01:29;4.45;;;1.50;;
58972;SDS011;44750;52.040;7.472;2022-07-30T14:06:29;2.58;;;1.50;;
58972;SDS011;44750;52.040;7.472;2022-07-30T14:11:30;5.32;;;1.50;;
58972;SDS011;44750;52.040;7.472;2022-07-30T14:16:30;4.43;;;1.70;;
58972;SDS011;44750;52.040;7.472;2022-07-30T14:21:31;3.95;;;1.60;;
58972;SDS011;44750;52.040;7.472;2022-07-30T14:26:31;6.78;;;1.25;;
58972;SDS011;44750;52.040;7.472;2022-07-30T14:31:31;4.40;;;1.30;;
58972;SDS011;44750;52.040;7.472;2022-07-30T14:36:32;3.20;;;1.48;;
58972;SDS011;44750;52.040;7.472;2022-07-30T14:41:32;3.90;;;1.53;;
58972;SDS011;44750;52.040;7.472;2022-07-30T14:46:32;2.47;;;1.40;;
58972;SDS011;44750;52.040;7.472;2022-07-30T14:51:32;6.50;;;1.65;;
58972;SDS011;44750;52.040;7.472;2022-07-30T14:56:33;4.25;;;1.45;;
58972;SDS011;44750;52.040;7.472;2022-07-30T15:01:33;6.40;;;1.35;;
58972;SDS011;44750;52.040;7.472;2022-07-30T15:06:33;2.90;;;1.50;;
58972;SDS011;44750;52.040;7.472;2022-07-30T15:11:34;3.13;;;1.40;;
58972;SDS011;44750;52.040;7.472;2022-07-30T15:16:35;2.72;;;1.33;;
58972;SDS011;44750;52.040;7.472;2022-07-30T15:21:35;4.20;;;2.42;;
58972;SDS011;44750;52.040;7.472;2022-07-30T15:26:35;4.03;;;1.38;;
58972;SDS011;44750;52.040;7.472;2022-07-30T15:31:36;3.05;;;1.30;;
58972;SDS011;44750;52.040;7.472;2022-07-30T15:36:36;2.58;;;1.40;;
58972;SDS011;44750;52.040;7.472;2022-07-30T15:41:37;10.95;;;1.23;;
58972;SDS011;44750;52.040;7.472;2022-07-30T15:46:37;2.83;;;1.30;;
58972;SDS011;44750;52.040;7.472;2022-07-30T15:51:38;2.93;;;1.53;;
58972;SDS011;44750;52.040;7.472;2022-07-30T15:56:38;3.40;;;1.13;;
58972;SDS011;44750;52.040;7.472;2022-07-30T16:01:38;3.92;;;1.38;;
58972;SDS011;44750;52.040;7.472;2022-07-30T16:06:39;2.55;;;1.02;;
58972;SDS011;44750;52.040;7.472;2022-07-30T16:11:39;2.20;;;1.00;;
58972;SDS011;44750;52.040;7.472;2022-07-30T16:16:40;1.33;;;0.97;;
58972;SDS011;44750;52.040;7.472;2022-07-30T16:21:40;2.80;;;1.27;;
58972;SDS011;44750;52.040;7.472;2022-07-30T16:26:41;2.28;;;1.00;;
58972;SDS011;44750;52.040;7.472;2022-07-30T16:31:41;2.30;;;1.10;;
58972;SDS011;44750;52.040;7.472;2022-07-30T16:36:41;1.33;;;1.15;;
58972;SDS011;44750;52.040;7.472;2022-07-30T16:41:42;2.55;;;1.23;;
58972;SDS011;44750;52.040;7.472;2022-07-30T16:46:42;2.75;;;1.40;;
58972;SDS011;44750;52.040;7.472;2022-07-30T16:51:42;1.95;;;0.90;;
58972;SDS011;44750;52.040;7.472;2022-07-30T16:56:42;1.38;;;1.10;;
58972;SDS011;44750;52.040;7.472;2022-07-30T17:01:43;2.03;;;1.10;;
58972;SDS011;44750;52.040;7.472;2022-07-30T17:06:43;3.58;;;0.85;;
58972;SDS011;44750;52.040;7.472;2022-07-30T17:11:43;6.13;;;1.10;;
58972;SDS011;44750;52.040;7.472;2022-07-30T17:16:43;2.25;;;0.90;;
58972;SDS011;44750;52.040;7.472;2022-07-30T17:21:44;1.02;;;0.90;;
58972;SDS011;44750;52.040;7.472;2022-07-30T17:26:44;2.95;;;0.98;;
58972;SDS011;44750;52.040;7.472;2022-07-30T17:31:44;3.47;;;1.00;;
58972;SDS011;44750;52.040;7.472;2022-07-30T17:36:45;1.45;;;0.80;;
58972;SDS011;44750;52.040;7.472;2022-07-30T17:41:46;2.50;;;0.80;;
58972;SDS011;44750;52.040;7.472;2022-07-30T17:46:47;2.60;;;1.02;;
58972;SDS011;44750;52.040;7.472;2022-07-30T17:51:47;1.73;;;0.90;;
58972;SDS011;44750;52.040;7.472;2022-07-30T17:56:47;3.03;;;1.10;;
58972;SDS011;44750;52.040;7.472;2022-07-30T18:01:48;5.00;;;1.15;;
58972;SDS011;44750;52.040;7.472;2022-07-30T18:06:48;5.32;;;1.75;;
58972;SDS011;44750;52.040;7.472;2022-07-30T18:11:48;6.07;;;1.70;;
58972;SDS011;44750;52.040;7.472;2022-07-30T18:16:49;4.73;;;1.53;;
58972;SDS011;44750;52.040;7.472;2022-07-30T18:21:50;1.45;;;1.15;;
58972;SDS011;44750;52.040;7.472;2022-07-30T18:26:50;8.77;;;1.77;;
58972;SDS011;44750;52.040;7.472;2022-07-30T18:31:51;6.75;;;2.80;;
58972;SDS011;44750;52.040;7.472;2022-07-30T18:36:51;1.85;;;1.02;;
58972;SDS011;44750;52.040;7.472;2022-07-30T18:41:51;3.17;;;1.90;;
58972;SDS011;44750;52.040;7.472;2022-07-30T18:46:51;3.00;;;1.90;;
58972;SDS011;44750;52.040;7.472;2022-07-30T18:51:52;3.88;;;1.30;;
58972;SDS011;44750;52.040;7.472;2022-07-30T18:56:52;2.88;;;1.48;;
58972;SDS011;44750;52.040;7.472;2022-07-30T19:01:52;1.85;;;1.30;;
58972;SDS011;44750;52.040;7.472;2022-07-30T19:06:52;2.85;;;1.30;;
58972;SDS011;44750;52.040;7.472;2022-07-30T19:11:52;5.20;;;1.60;;
58972;SDS011;44750;52.040;7.472;2022-07-30T19:16:53;3.87;;;1.63;;
58972;SDS011;44750;52.040;7.472;2022-07-30T19:21:53;2.72;;;1.40;;
58972;SDS011;44750;52.040;7.472;2022-07-30T19:26:54;2.60;;;1.60;;
58972;SDS011;44750;52.040;7.472;2022-07-30T19:31:54;3.83;;;1.80;;
58972;SDS011;44750;52.040;7.472;2022-07-30T19:36:54;7.53;;;2.13;;
58972;SDS011;44750;52.040;7.472;2022-07-30T19:41:55;6.95;;;1.70;;
58972;SDS011;44750;52.040;7.472;2022-07-30T19:46:55;2.72;;;1.40;;
58972;SDS011;44750;52.040;7.472;2022-07-30T19:51:55;2.38;;;1.67;;
58972;SDS011;44750;52.040;7.472;2022-07-30T19:56:56;5.32;;;1.90;;
58972;SDS011;44750;52.040;7.472;2022-07-30T20:01:56;7.00;;;2.47;;
58972;SDS011;44750;52.040;7.472;2022-07-30T20:06:56;5.22;;;2.35;;
58972;SDS011;44750;52.040;7.472;2022-07-30T20:11:57;7.28;;;2.47;;
58972;SDS011;44750;52.040;7.472;2022-07-30T20:16:57;8.45;;;2.85;;
58972;SDS011;44750;52.040;7.472;2022-07-30T20:21:57;6.90;;;3.55;;
58972;SDS011;44750;52.040;7.472;2022-07-30T20:26:57;6.13;;;3.05;;
58972;SDS011;44750;52.040;7.472;2022-07-30T20:31:57;5.55;;;2.40;;
58972;SDS011;44750;52.040;7.472;2022-07-30T20:36:58;6.03;;;2.70;;
58972;SDS011;44750;52.040;7.472;2022-07-30T20:41:58;5.50;;;2.38;;
58972;SDS011;44750;52.040;7.472;2022-07-30T20:46:58;9.32;;;2.20;;
58972;SDS011;44750;52.040;7.472;2022-07-30T20:51:58;6.35;;;2.20;;
58972;SDS011;44750;52.040;7.472;2022-07-30T20:56:59;6.32;;;2.75;;
58972;SDS011;44750;52.040;7.472;2022-07-30T21:01:59;3.78;;;2.50;;
58972;SDS011;44750;52.040;7.472;2022-07-30T21:06:59;4.95;;;2.75;;
58972;SDS011;44750;52.040;7.472;2022-07-30T21:11:59;5.38;;;2.80;;
58972;SDS011;44750;52.040;7.472;2022-07-30T21:16:59;9.15;;;2.38;;
58972;SDS011;44750;52.040;7.472;2022-07-30T21:22:00;4.72;;;2.42;;
58972;SDS011;44750;52.040;7.472;2022-07-30T21:27:00;8.65;;;3.80;;
58972;SDS011;44750;52.040;7.472;2022-07-30T21:32:00;4.68;;;2.08;;
58972;SDS011;44750;52.040;7.472;2022-07-30T21:37:01;5.73;;;2.40;;
58972;SDS011;44750;52.040;7.472;2022-07-30T21:42:01;6.43;;;2.40;;
58972;SDS011;44750;52.040;7.472;2022-07-30T21:47:01;12.93;;;2.20;;
58972;SDS011;44750;52.040;7.472;2022-07-30T21:52:01;12.10;;;2.05;;
58972;SDS011;44750;52.040;7.472;2022-07-30T21:57:02;5.35;;;2.70;;
58972;SDS011;44750;52.040;7.472;2022-07-30T22:02:02;7.82;;;3.50;;
58972;SDS011;44750;52.040;7.472;2022-07-30T22:07:02;4.90;;;2.60;;
58972;SDS011;44750;52.040;7.472;2022-07-30T22:12:03;5.63;;;2.70;;
58972;SDS011;44750;52.040;7.472;2022-07-30T22:17:03;9.63;;;3.13;;
58972;SDS011;44750;52.040;7.472;2022-07-30T22:22:04;6.88;;;3.67;;
58972;SDS011;44750;52.040;7.472;2022-07-30T22:27:04;9.98;;;2.60;;
58972;SDS011;44750;52.040;7.472;2022-07-30T22:32:04;3.58;;;2.20;;
58972;SDS011;44750;52.040;7.472;2022-07-30T22:37:05;4.82;;;2.67;;
58972;SDS011;44750;52.040;7.472;2022-07-30T22:42:05;3.60;;;2.63;;
58972;SDS011;44750;52.040;7.472;2022-07-30T22:47:05;5.80;;;2.50;;
58972;SDS011;44750;52.040;7.472;2022-07-30T22:52:05;6.45;;;2.70;;
58972;SDS011;44750;52.040;7.472;2022-07-30T22:57:06;8.75;;;2.40;;
58972;SDS011;44750;52.040;7.472;2022-07-30T23:02:06;12.17;;;2.70;;
58972;SDS011;44750;52.040;7.472;2022-07-30T23:07:06;8.57;;;2.60;;
58972;SDS011;44750;52.040;7.472;2022-07-30T23:12:06;5.38;;;3.00;;
58972;SDS011;44750;52.040;7.472;2022-07-30T23:17:07;9.13;;;2.63;;
58972;SDS011;44750;52.040;7.472;2022-07-30T23:22:07;7.63;;;2.60;;
58972;SDS011;44750;52.040;7.472;2022-07-30T23:27:07;8.97;;;3.13;;
58972;SDS011;44750;52.040;7.472;2022-07-30T23:32:08;6.95;;;3.55;;
58972;SDS011;44750;52.040;7.472;2022-07-30T23:37:08;11.07;;;3.40;;
58972;SDS011;44750;52.040;7.472;2022-07-30T23:42:08;9.83;;;3.40;;
58972;SDS011;44750;52.040;7.472;2022-07-30T23:47:08;7.47;;;2.60;;
58972;SDS011;44750;52.040;7.472;2022-07-30T23:52:09;4.05;;;2.28;;
58972;SDS011;44750;52.040;7.472;2022-07-30T23:57:09;4.63;;;2.20;;
